Time;durP1;ratioP1;P1;durP2;ratioP2;P2;SDS_P1;SDS_P2;PMS_P1;PMS_P2;Temp;Humidity;BMP_temperature;BMP_pressure;BME280_temperature;BME280_humidity;BME280_pressure;Samples;Min_cycle;Max_cycle;Signal;HPM_P1;HPM_P2
2022/05/28 00:00:56;;;;;;;0.75;0.70;;;13.10;99.90;;;;;;5083364;28;20475;-64
2022/05/28 00:03:26;;;;;;;2.38;0.80;;;13.00;99.90;;;;;;5083403;28;20072;-64
2022/05/28 00:05:53;;;;;;;2.38;1.10;;;13.00;99.90;;;;;;5091958;28;20044;-64
2022/05/28 00:08:19;;;;;;;0.88;0.88;;;13.00;99.90;;;;;;5091792;28;20089;-64
2022/05/28 00:10:46;;;;;;;2.28;0.70;;;13.00;99.90;;;;;;5081023;28;20032;-64
2022/05/28 00:13:13;;;;;;;1.55;1.00;;;13.10;99.90;;;;;;5085724;28;20490;-64
2022/05/28 00:15:41;;;;;;;0.82;0.82;;;13.20;99.90;;;;;;5091826;28;20056;-64
2022/05/28 00:18:08;;;;;;;1.70;1.30;;;13.30;99.90;;;;;;5085715;28;20047;-64
2022/05/28 00:20:35;;;;;;;0.88;0.85;;;13.30;99.90;;;;;;5079431;28;20214;-64
2022/05/28 00:23:04;;;;;;;1.85;1.00;;;13.30;99.90;;;;;;5091747;28;20082;-64
2022/05/28 00:25:30;;;;;;;1.05;0.80;;;13.30;99.90;;;;;;5089570;28;20040;-64
2022/05/28 00:27:57;;;;;;;2.25;1.00;;;13.20;99.90;;;;;;5082593;28;20037;-64
2022/05/28 00:30:24;;;;;;;3.28;1.00;;;13.20;99.90;;;;;;5090896;28;20051;-64
2022/05/28 00:32:51;;;;;;;1.10;0.88;;;13.20;99.90;;;;;;5091595;28;20048;-64
2022/05/28 00:35:19;;;;;;;2.67;1.02;;;13.30;99.90;;;;;;5082891;28;20048;-64
2022/05/28 00:37:47;;;;;;;1.92;0.90;;;13.20;99.90;;;;;;5089905;28;20048;-64
2022/05/28 00:40:21;;;;;;;1.15;0.80;;;13.10;99.90;;;;;;5090920;28;20048;-64
2022/05/28 00:42:48;;;;;;;4.20;1.20;;;13.10;99.90;;;;;;5075965;28;20047;-64
2022/05/28 00:45:15;;;;;;;0.88;0.82;;;13.00;99.90;;;;;;5082837;28;20482;-64
2022/05/28 00:47:51;;;;;;;1.55;1.10;;;13.00;99.90;;;;;;5091678;28;20462;-64
2022/05/28 00:50:19;;;;;;;1.17;1.00;;;13.00;99.90;;;;;;5090600;28;20045;-64
2022/05/28 00:52:46;;;;;;;4.95;2.10;;;13.00;99.90;;;;;;5079706;28;20048;-64
2022/05/28 00:55:15;;;;;;;1.92;1.00;;;13.00;99.90;;;;;;5085036;28;20093;-64
2022/05/28 00:57:43;;;;;;;2.60;0.80;;;13.00;99.90;;;;;;5090027;28;20055;-64
2022/05/28 01:00:13;;;;;;;1.10;0.95;;;13.00;99.90;;;;;;5080958;28;20044;-64
2022/05/28 01:02:53;;;;;;;3.08;1.17;;;13.00;99.90;;;;;;5082959;28;20048;-64
2022/05/28 01:05:36;;;;;;;1.45;1.27;;;12.90;99.90;;;;;;5091238;28;20044;-64
2022/05/28 01:08:21;;;;;;;1.55;1.00;;;13.00;99.90;;;;;;5081771;28;20087;-64
2022/05/28 01:11:16;;;;;;;4.47;1.00;;;13.00;99.90;;;;;;5082369;28;20040;-64
2022/05/28 01:13:45;;;;;;;3.03;1.13;;;13.00;99.90;;;;;;5091312;28;20526;-64
2022/05/28 01:16:15;;;;;;;2.20;1.20;;;12.90;99.90;;;;;;5087373;28;20056;-65
2022/05/28 01:18:48;;;;;;;1.65;1.30;;;12.90;99.90;;;;;;5080494;28;20040;-64
2022/05/28 01:21:42;;;;;;;1.40;1.20;;;12.90;99.90;;;;;;5090766;28;20040;-64
2022/05/28 01:24:21;;;;;;;1.90;1.38;;;12.90;99.90;;;;;;5091147;28;20044;-64
2022/05/28 01:26:52;;;;;;;1.70;1.25;;;12.90;99.90;;;;;;5079777;28;20513;-64
2022/05/28 01:29:21;;;;;;;1.13;1.02;;;13.00;99.90;;;;;;5091251;28;20121;-64
2022/05/28 01:31:49;;;;;;;1.23;1.00;;;13.00;99.90;;;;;;5090268;28;20044;-64
2022/05/28 01:34:19;;;;;;;2.42;1.20;;;13.10;99.90;;;;;;5088655;28;20043;-64
2022/05/28 01:36:48;;;;;;;2.72;1.10;;;13.10;99.90;;;;;;5082449;28;20485;-64
2022/05/28 01:39:18;;;;;;;3.22;1.00;;;13.20;99.90;;;;;;5093925;28;20097;-64
2022/05/28 01:41:46;;;;;;;2.22;0.75;;;13.10;99.90;;;;;;5094353;28;20055;-64
2022/05/28 01:44:15;;;;;;;1.33;1.05;;;13.20;99.90;;;;;;5077541;28;20040;-64
2022/05/28 01:46:45;;;;;;;1.60;1.08;;;13.10;99.90;;;;;;5092240;28;20317;-64
2022/05/28 01:49:16;;;;;;;1.48;1.10;;;13.10;99.90;;;;;;5094998;28;20124;-64
2022/05/28 01:51:49;;;;;;;2.08;1.20;;;13.00;99.90;;;;;;5078124;28;20045;-64
2022/05/28 01:54:20;;;;;;;1.85;0.98;;;13.00;99.90;;;;;;5085871;28;20100;-64
2022/05/28 01:56:50;;;;;;;2.10;1.05;;;13.00;99.90;;;;;;5094484;28;20047;-64
2022/05/28 01:59:21;;;;;;;1.60;1.02;;;12.90;99.90;;;;;;5094520;28;20040;-64
2022/05/28 02:01:48;;;;;;;2.10;1.30;;;12.90;99.90;;;;;;5084828;28;20044;-64
2022/05/28 02:04:15;;;;;;;3.05;1.02;;;12.80;99.90;;;;;;5088318;28;20044;-64
2022/05/28 02:06:42;;;;;;;2.38;1.15;;;12.70;99.90;;;;;;5094268;28;20040;-64
2022/05/28 02:09:14;;;;;;;1.30;1.08;;;12.70;99.90;;;;;;5085985;28;20129;-64
2022/05/28 02:11:52;;;;;;;2.38;1.33;;;12.60;99.90;;;;;;5085373;28;20048;-64
2022/05/28 02:14:29;;;;;;;;;;;12.50;99.90;;;;;;5094955;28;20032;-64
2022/05/28 02:16:58;;;;;;;2.97;1.17;;;12.50;99.90;;;;;;5087115;28;19943;-64
2022/05/28 02:19:50;;;;;;;1.55;1.17;;;12.40;99.90;;;;;;5089369;28;20063;-63
2022/05/28 02:22:28;;;;;;;4.03;1.00;;;12.50;99.90;;;;;;5064958;28;20059;-63
2022/05/28 02:25:01;;;;;;;4.28;1.40;;;12.40;99.90;;;;;;5091058;28;20048;-63
2022/05/28 02:27:29;;;;;;;1.05;0.93;;;12.50;99.90;;;;;;5085489;28;20055;-63
2022/05/28 02:30:00;;;;;;;3.15;1.40;;;12.50;99.90;;;;;;5093165;28;20488;-64
2022/05/28 02:32:26;;;;;;;2.25;1.20;;;12.60;99.90;;;;;;5093808;28;20246;-64
2022/05/28 02:34:53;;;;;;;3.60;1.33;;;12.50;99.90;;;;;;5083936;28;20040;-64
2022/05/28 02:37:23;;;;;;;4.65;1.40;;;12.50;99.90;;;;;;5088446;28;20097;-64
2022/05/28 02:39:50;;;;;;;1.13;1.00;;;12.50;99.90;;;;;;5093467;28;20097;-64
2022/05/28 02:42:17;;;;;;;3.90;1.35;;;12.40;99.90;;;;;;5093439;28;20063;-63
2022/05/28 02:44:44;;;;;;;1.60;1.17;;;12.40;99.90;;;;;;5081188;28;20109;-63
2022/05/28 02:47:11;;;;;;;2.08;1.20;;;12.30;99.90;;;;;;5093534;28;20040;-63
2022/05/28 02:49:38;;;;;;;2.80;1.30;;;12.30;99.90;;;;;;5093149;28;20093;-63
2022/05/28 02:52:06;;;;;;;1.83;1.27;;;12.20;99.90;;;;;;5083643;28;20040;-63
2022/05/28 02:54:33;;;;;;;1.55;1.00;;;12.20;99.90;;;;;;5084868;28;20033;-63
2022/05/28 02:57:00;;;;;;;3.70;1.40;;;12.20;99.90;;;;;;5093188;28;20101;-63
2022/05/28 02:59:27;;;;;;;1.52;1.42;;;12.30;99.90;;;;;;5089074;28;20492;-63
2022/05/28 03:01:54;;;;;;;1.70;1.30;;;12.20;99.90;;;;;;5084285;28;20052;-63
2022/05/28 03:04:20;;;;;;;2.92;1.45;;;12.10;99.90;;;;;;5093139;28;20093;-63
2022/05/28 03:06:47;;;;;;;1.40;1.00;;;12.10;99.90;;;;;;5079333;28;20037;-63
2022/05/28 03:09:16;;;;;;;1.60;1.15;;;12.20;99.90;;;;;;5084609;28;20040;-63
2022/05/28 03:11:43;;;;;;;2.00;1.30;;;12.20;99.90;;;;;;5092591;28;20622;-63
2022/05/28 03:14:10;;;;;;;2.53;1.60;;;12.20;99.90;;;;;;5091345;28;20036;-63
2022/05/28 03:16:37;;;;;;;1.42;1.30;;;12.10;99.90;;;;;;5081522;28;20036;-64
2022/05/28 03:19:04;;;;;;;5.20;1.30;;;12.10;99.90;;;;;;5092847;28;20435;-63
2022/05/28 03:21:31;;;;;;;2.80;1.40;;;12.10;99.90;;;;;;5092303;28;20105;-63
2022/05/28 03:23:58;;;;;;;2.67;1.50;;;12.20;99.90;;;;;;5083475;28;20093;-63
2022/05/28 03:26:27;;;;;;;2.97;1.20;;;12.20;99.90;;;;;;5084247;28;20518;-63
2022/05/28 03:28:56;;;;;;;1.20;1.08;;;12.30;99.90;;;;;;5092528;28;20074;-64
2022/05/28 03:31:25;;;;;;;2.58;1.38;;;12.30;99.90;;;;;;5092150;28;20070;-64
2022/05/28 03:33:52;;;;;;;2.22;1.50;;;12.30;99.90;;;;;;5086808;28;20496;-63
2022/05/28 03:36:20;;;;;;;4.20;1.50;;;12.30;99.90;;;;;;5087216;28;20044;-64
2022/05/28 03:38:47;;;;;;;4.15;1.65;;;12.20;99.90;;;;;;5092548;28;20557;-64
2022/05/28 03:41:14;;;;;;;2.15;1.20;;;12.20;99.90;;;;;;5090650;28;20043;-64
2022/05/28 03:43:41;;;;;;;6.68;1.42;;;12.20;99.90;;;;;;5079526;28;20413;-64
2022/05/28 03:46:31;;;;;;;2.97;1.83;;;12.20;99.90;;;;;;5092389;28;20044;-64
2022/05/28 03:49:26;;;;;;;2.92;1.45;;;12.20;99.90;;;;;;5092326;28;20361;-64
2022/05/28 03:51:54;;;;;;;2.47;1.75;;;12.20;99.90;;;;;;5079624;28;20052;-64
2022/05/28 03:54:21;;;;;;;2.17;1.60;;;12.20;99.90;;;;;;5086788;28;20036;-64
2022/05/28 03:56:49;;;;;;;3.03;1.30;;;12.20;99.90;;;;;;5092148;28;20581;-64
2022/05/28 03:59:16;;;;;;;2.80;1.65;;;12.10;99.90;;;;;;5086759;28;20041;-64
2022/05/28 04:01:43;;;;;;;4.68;1.55;;;12.10;99.90;;;;;;5080266;28;20041;-64
2022/05/28 04:04:10;;;;;;;3.20;1.35;;;12.10;99.90;;;;;;5091964;28;20051;-64
2022/05/28 04:06:37;;;;;;;3.28;1.70;;;12.10;99.90;;;;;;5092020;28;20048;-64
2022/05/28 04:09:05;;;;;;;2.75;1.77;;;12.10;99.90;;;;;;5085830;28;20114;-64
2022/05/28 04:11:32;;;;;;;2.70;1.20;;;12.00;99.90;;;;;;5087745;28;20496;-64
2022/05/28 04:13:59;;;;;;;2.42;1.48;;;12.00;99.90;;;;;;5092014;28;20089;-64
2022/05/28 04:16:26;;;;;;;3.45;1.75;;;12.00;99.90;;;;;;5077193;28;20037;-64
2022/05/28 04:18:53;;;;;;;;;;;12.00;99.90;;;;;;5082817;28;20050;-64
2022/05/28 04:21:20;;;;;;;2.10;1.90;;;12.00;99.90;;;;;;5091326;28;19920;-64
2022/05/28 04:23:47;;;;;;;3.05;2.25;;;11.90;99.90;;;;;;5088747;28;20378;-64
2022/05/28 04:26:14;;;;;;;2.97;1.88;;;11.90;99.90;;;;;;5083186;28;20093;-64
2022/05/28 04:28:41;;;;;;;3.03;1.80;;;11.90;99.90;;;;;;5091729;28;20048;-64
2022/05/28 04:31:08;;;;;;;3.10;1.70;;;11.80;99.90;;;;;;5090927;28;20087;-64
2022/05/28 04:33:35;;;;;;;1.98;1.83;;;11.80;99.90;;;;;;5084368;28;20037;-64
2022/05/28 04:36:01;;;;;;;3.05;2.00;;;11.80;99.90;;;;;;5083889;28;20032;-64
2022/05/28 04:38:28;;;;;;;8.10;2.03;;;11.80;99.90;;;;;;5091417;28;20047;-64
2022/05/28 04:40:55;;;;;;;1.85;1.60;;;11.90;99.90;;;;;;5082038;28;20109;-64
2022/05/28 04:43:21;;;;;;;1.95;1.58;;;11.90;99.90;;;;;;5082913;28;20048;-64
2022/05/28 04:45:48;;;;;;;3.17;1.75;;;11.90;99.90;;;;;;5091517;28;20036;-64
2022/05/28 04:48:16;;;;;;;1.92;1.52;;;11.90;99.90;;;;;;5091352;28;20504;-64
2022/05/28 04:50:42;;;;;;;;;;;11.90;99.90;;;;;;5086638;28;20446;-64
2022/05/28 04:53:09;;;;;;;2.95;1.80;;;11.80;99.90;;;;;;5084376;28;19927;-64
2022/05/28 04:55:37;;;;;;;6.50;2.05;;;11.80;99.90;;;;;;5091384;28;20097;-64
2022/05/28 04:58:05;;;;;;;2.67;2.10;;;11.80;99.90;;;;;;5086514;28;20044;-63
2022/05/28 05:00:33;;;;;;;2.67;1.85;;;11.80;99.90;;;;;;5082421;28;20044;-63
2022/05/28 05:03:00;;;;;;;3.55;1.88;;;11.80;99.90;;;;;;5091092;28;20040;-63
2022/05/28 05:05:27;;;;;;;2.85;1.90;;;11.80;99.90;;;;;;5090463;28;20048;-64
2022/05/28 05:07:54;;;;;;;2.00;1.75;;;11.90;99.90;;;;;;5081769;28;20095;-64
2022/05/28 05:10:20;;;;;;;1.70;1.50;;;11.90;99.90;;;;;;5090964;28;20036;-63
2022/05/28 05:12:47;;;;;;;4.60;2.35;;;12.00;99.90;;;;;;5092064;28;20485;-64
2022/05/28 05:15:14;;;;;;;3.05;1.98;;;11.90;99.90;;;;;;5091596;28;20051;-64
2022/05/28 05:17:41;;;;;;;5.45;2.50;;;11.80;99.90;;;;;;5084404;28;20045;-63
2022/05/28 05:20:10;;;;;;;2.70;2.42;;;11.90;99.90;;;;;;5094702;28;20446;-64
2022/05/28 05:22:37;;;;;;;3.90;2.70;;;12.00;99.90;;;;;;5094802;28;20439;-64
2022/05/28 05:25:04;;;;;;;2.47;2.05;;;12.10;99.90;;;;;;5092312;28;20097;-64
2022/05/28 05:27:32;;;;;;;3.25;1.92;;;12.30;99.90;;;;;;5083130;28;20041;-63
2022/05/28 05:29:59;;;;;;;5.35;2.00;;;12.40;99.90;;;;;;5054389;28;20048;-64
2022/05/28 05:33:17;;;;;;;3.03;1.95;;;12.60;99.90;;;;;;5113301;22;20047;-62
2022/05/28 05:35:57;;;;;;;3.95;2.03;;;12.60;99.90;;;;;;5112039;28;20088;-63
2022/05/28 05:38:23;;;;;;;5.78;1.88;;;12.90;99.90;;;;;;5106733;28;20035;-64
2022/05/28 05:40:52;;;;;;;2.20;1.63;;;13.00;99.90;;;;;;5106410;28;20495;-64
2022/05/28 05:43:19;;;;;;;2.25;1.73;;;13.20;99.90;;;;;;5093809;28;20040;-64
2022/05/28 05:45:53;;;;;;;2.75;1.80;;;13.30;99.90;;;;;;5084141;28;20055;-64
2022/05/28 05:48:20;;;;;;;1.75;1.52;;;13.30;99.90;;;;;;5074384;28;20041;-64
2022/05/28 05:50:47;;;;;;;3.53;1.92;;;13.30;99.90;;;;;;5073670;28;20033;-64
2022/05/28 05:53:14;;;;;;;2.13;1.85;;;13.40;99.90;;;;;;5077137;28;20128;-64
2022/05/28 05:55:41;;;;;;;4.68;1.88;;;13.50;99.90;;;;;;5085753;28;20082;-64
2022/05/28 05:58:08;;;;;;;2.97;2.35;;;13.60;99.90;;;;;;5094328;28;20048;-64
2022/05/28 06:00:35;;;;;;;2.28;2.08;;;13.80;99.90;;;;;;5093981;28;20105;-64
2022/05/28 06:03:02;;;;;;;2.92;1.60;;;13.90;99.90;;;;;;5089538;28;20048;-64
2022/05/28 06:05:29;;;;;;;2.22;1.70;;;13.90;99.90;;;;;;5090367;28;20056;-64
2022/05/28 06:07:56;;;;;;;1.77;1.40;;;13.80;99.90;;;;;;5094824;28;20040;-64
2022/05/28 06:10:23;;;;;;;3.15;1.75;;;13.90;99.90;;;;;;5093154;28;20047;-64
2022/05/28 06:12:50;;;;;;;;;;;14.00;99.90;;;;;;5086019;28;20044;-64
2022/05/28 06:15:17;;;;;;;4.82;2.30;;;13.90;99.90;;;;;;5094235;28;19973;-64
2022/05/28 06:17:44;;;;;;;2.55;2.08;;;13.80;99.90;;;;;;5094090;28;20066;-64
2022/05/28 06:20:12;;;;;;;2.90;2.47;;;13.50;99.90;;;;;;5093145;28;20275;-64
2022/05/28 06:22:39;;;;;;;3.42;2.60;;;13.30;99.90;;;;;;5085086;28;20040;-64
2022/05/28 06:25:06;;;;;;;4.10;2.50;;;13.30;99.90;;;;;;5092971;28;20109;-64
2022/05/28 06:27:33;;;;;;;4.57;2.95;;;13.10;99.90;;;;;;5093158;28;20040;-64
2022/05/28 06:30:00;;;;;;;6.28;3.58;;;12.90;99.90;;;;;;5085074;28;20044;-64
2022/05/28 06:32:27;;;;;;;8.32;3.38;;;12.60;99.90;;;;;;5093961;28;20043;-64
2022/05/28 06:34:55;;;;;;;7.40;3.80;;;12.40;99.90;;;;;;5093691;28;20044;-64
2022/05/28 06:37:22;;;;;;;9.45;4.93;;;12.20;99.90;;;;;;5092996;28;20233;-63
2022/05/28 06:39:49;;;;;;;9.45;4.97;;;12.00;99.90;;;;;;5085086;28;20044;-63
2022/05/28 06:42:16;;;;;;;9.93;4.75;;;11.80;99.90;;;;;;5093354;28;20078;-63
2022/05/28 06:44:42;;;;;;;11.23;5.10;;;11.80;99.90;;;;;;5093312;28;20062;-63
2022/05/28 06:47:09;;;;;;;12.02;5.00;;;11.70;99.90;;;;;;5088077;28;20040;-63
2022/05/28 06:49:36;;;;;;;10.45;4.82;;;11.60;99.90;;;;;;5090288;28;20085;-63
2022/05/28 06:52:03;;;;;;;7.60;4.65;;;11.50;99.90;;;;;;5092954;28;20060;-62
2022/05/28 06:54:30;;;;;;;13.93;5.35;;;11.60;99.90;;;;;;5075561;28;20386;-63
2022/05/28 06:56:56;;;;;;;16.92;5.93;;;11.60;99.90;;;;;;5081496;28;20051;-63
2022/05/28 06:59:23;;;;;;;14.80;6.23;;;11.60;99.90;;;;;;5073082;28;20102;-63
2022/05/28 07:01:50;;;;;;;13.15;5.60;;;11.60;99.90;;;;;;5082671;28;20355;-63
2022/05/28 07:04:17;;;;;;;18.13;6.88;;;11.70;99.90;;;;;;5084497;28;20485;-63
2022/05/28 07:06:43;;;;;;;13.27;6.70;;;11.80;99.90;;;;;;5093217;28;20036;-63
2022/05/28 07:09:10;;;;;;;9.05;5.82;;;11.80;99.90;;;;;;5093045;28;20294;-63
2022/05/28 07:11:37;;;;;;;12.13;6.63;;;11.80;99.90;;;;;;5089651;28;20043;-63
2022/05/28 07:14:03;;;;;;;9.40;5.93;;;11.80;99.90;;;;;;5085353;28;20369;-63
2022/05/28 07:16:30;;;;;;;11.73;7.15;;;11.90;99.90;;;;;;5092989;28;20040;-63
2022/05/28 07:18:57;;;;;;;10.77;7.45;;;11.90;99.90;;;;;;5092882;28;20048;-63
2022/05/28 07:21:24;;;;;;;10.60;6.32;;;12.00;99.90;;;;;;5084997;28;20040;-63
2022/05/28 07:23:50;;;;;;;19.17;5.97;;;12.00;99.90;;;;;;5084256;28;20081;-62
2022/05/28 07:26:18;;;;;;;14.38;6.60;;;12.00;99.90;;;;;;5092410;28;20400;-63
2022/05/28 07:28:46;;;;;;;10.52;6.95;;;12.00;99.90;;;;;;5092715;28;20083;-63
2022/05/28 07:31:18;;;;;;;12.02;7.13;;;12.00;99.90;;;;;;5091551;28;20373;-63
2022/05/28 07:33:46;;;;;;;16.83;7.20;;;12.10;99.90;;;;;;5083965;28;20051;-63
2022/05/28 07:36:24;;;;;;;8.98;5.85;;;12.00;99.90;;;;;;5092563;28;20054;-63
2022/05/28 07:38:52;;;;;;;14.80;6.93;;;12.00;99.90;;;;;;5089325;28;20044;-63
2022/05/28 07:41:21;;;;;;;12.35;6.85;;;12.00;99.90;;;;;;5086601;28;20516;-63
2022/05/28 07:43:48;;;;;;;12.50;6.65;;;12.00;99.90;;;;;;5092649;28;20218;-63
2022/05/28 07:46:20;;;;;;;;;;;12.10;99.90;;;;;;5091868;28;20407;-63
2022/05/28 07:48:49;;;;;;;13.57;6.43;;;12.00;99.90;;;;;;5084112;28;20406;-63
2022/05/28 07:51:16;;;;;;;16.92;7.50;;;12.00;99.90;;;;;;5092157;28;20403;-63
2022/05/28 07:53:43;;;;;;;11.80;6.72;;;12.00;99.90;;;;;;5092093;28;20048;-63
2022/05/28 07:56:11;;;;;;;15.38;7.57;;;12.10;99.90;;;;;;5086903;28;20369;-63
2022/05/28 07:58:39;;;;;;;14.88;6.90;;;12.10;99.90;;;;;;5089373;28;20040;-63
2022/05/28 08:01:06;;;;;;;15.57;7.25;;;12.00;99.90;;;;;;5091711;28;20097;-63
2022/05/28 08:03:34;;;;;;;16.08;7.50;;;12.00;99.90;;;;;;5092335;28;20044;-63
2022/05/28 08:06:02;;;;;;;12.75;7.60;;;11.90;99.90;;;;;;5087022;28;20493;-63
2022/05/28 08:08:28;;;;;;;22.13;7.85;;;11.80;99.90;;;;;;5088277;28;20048;-62
2022/05/28 08:10:55;;;;;;;16.65;7.70;;;11.90;99.90;;;;;;5091471;28;20052;-63
2022/05/28 08:13:24;;;;;;;13.80;7.32;;;11.90;99.90;;;;;;5087308;28;20048;-63
2022/05/28 08:15:54;;;;;;;14.73;7.90;;;11.90;99.90;;;;;;5083368;28;20438;-63
2022/05/28 08:18:24;;;;;;;11.55;7.28;;;12.00;99.90;;;;;;5091573;28;20044;-63
2022/05/28 08:23:40;;;;;;;16.42;7.78;;;12.40;99.90;;;;;;5090203;28;20036;-63
2022/05/28 08:26:08;;;;;;;17.58;7.63;;;12.60;99.90;;;;;;5084527;28;20056;-63
2022/05/28 08:28:37;;;;;;;14.52;6.40;;;12.60;99.90;;;;;;5091503;28;20067;-63
2022/05/28 08:31:05;;;;;;;13.50;6.57;;;12.60;99.90;;;;;;5083779;28;20047;-63
2022/05/28 08:33:32;;;;;;;;;;;12.40;99.90;;;;;;5083692;28;20039;-63
2022/05/28 08:35:59;;;;;;;18.40;7.53;;;12.20;99.90;;;;;;5091558;28;19920;-63
2022/05/28 08:38:27;;;;;;;19.55;8.00;;;12.20;99.90;;;;;;5091525;28;20519;-63
2022/05/28 08:41:06;;;;;;;13.27;7.68;;;12.20;99.90;;;;;;5081596;28;20049;-63
2022/05/28 08:43:37;;;;;;;20.20;8.75;;;12.30;99.90;;;;;;5088216;28;20093;-63
2022/05/28 08:46:07;;;;;;;17.48;7.32;;;12.30;99.90;;;;;;5091651;28;20468;-63
2022/05/28 08:48:51;;;;;;;14.70;7.18;;;12.20;99.90;;;;;;5090173;28;20448;-63
2022/05/28 08:51:32;;;;;;;16.60;7.25;;;12.30;99.90;;;;;;5082481;28;20032;-63
2022/05/28 08:54:09;;;;;;;14.27;7.60;;;12.30;99.90;;;;;;5091359;28;20443;-63
2022/05/28 08:56:37;;;;;;;13.35;8.70;;;12.50;99.90;;;;;;5090165;28;20044;-63
2022/05/28 08:59:12;;;;;;;19.63;9.02;;;12.60;99.90;;;;;;5083796;28;20048;-63
2022/05/28 09:01:41;;;;;;;15.55;7.60;;;12.60;99.90;;;;;;5091049;28;20393;-63
2022/05/28 09:04:25;;;;;;;14.85;7.00;;;12.40;99.90;;;;;;5090498;28;20101;-63
2022/05/28 09:07:03;;;;;;;14.98;7.63;;;12.50;99.90;;;;;;5082789;28;20098;-63
2022/05/28 09:09:47;;;;;;;14.57;7.55;;;12.40;99.90;;;;;;5091046;28;20044;-63
2022/05/28 09:12:21;;;;;;;19.00;8.82;;;12.40;99.90;;;;;;5090868;28;20036;-63
2022/05/28 09:14:48;;;;;;;12.70;7.40;;;12.40;99.90;;;;;;5090399;28;20040;-63
2022/05/28 09:17:36;;;;;;;17.98;8.43;;;12.30;99.90;;;;;;5082768;28;20036;-63
2022/05/28 09:20:07;;;;;;;19.40;8.00;;;12.30;99.90;;;;;;5090739;28;20356;-63
2022/05/28 09:22:34;;;;;;;14.63;7.97;;;12.30;99.90;;;;;;5091108;28;20097;-63
2022/05/28 09:25:01;;;;;;;14.02;7.25;;;12.30;99.90;;;;;;5086492;28;20032;-63
2022/05/28 09:28:04;;;;;;;11.32;8.00;;;12.20;99.90;;;;;;5086744;28;20051;-63
2022/05/28 09:30:50;;;;;;;17.63;8.88;;;12.10;99.90;;;;;;5090588;28;20036;-63
2022/05/28 09:33:43;;;;;;;18.48;8.23;;;12.10;99.90;;;;;;5084491;28;20032;-63
2022/05/28 09:36:16;;;;;;;20.02;8.85;;;12.30;99.90;;;;;;5090823;28;20040;-63
2022/05/28 09:39:06;;;;;;;22.85;7.72;;;12.30;99.90;;;;;;5090845;28;20083;-63
2022/05/28 09:41:47;;;;;;;20.75;7.10;;;12.30;99.90;;;;;;5085187;28;20047;-63
2022/05/28 09:44:22;;;;;;;17.85;7.30;;;12.20;99.90;;;;;;5084937;28;20518;-63
2022/05/28 09:46:49;;;;;;;19.25;7.50;;;12.20;99.90;;;;;;5091036;28;20169;-64
2022/05/28 09:49:23;;;;;;;19.30;8.63;;;12.10;99.90;;;;;;5090063;28;20040;-63
2022/05/28 09:51:55;;;;;;;17.30;7.70;;;12.00;99.90;;;;;;5081569;28;20149;-63
2022/05/28 09:54:27;;;;;;;16.95;7.60;;;12.00;99.90;;;;;;5090815;28;20036;-63
2022/05/28 09:57:03;;;;;;;12.43;7.72;;;12.00;99.90;;;;;;5090842;28;20047;-63
2022/05/28 09:59:56;;;;;;;15.05;7.50;;;11.90;99.90;;;;;;5085918;28;20058;-63
2022/05/28 10:02:42;;;;;;;16.48;7.45;;;11.90;99.90;;;;;;5089909;28;20059;-64
2022/05/28 10:05:16;;;;;;;12.68;6.38;;;12.00;99.90;;;;;;5094426;28;20051;-64
2022/05/28 10:07:53;;;;;;;14.68;7.25;;;12.00;99.90;;;;;;5093531;28;20063;-64
2022/05/28 10:10:30;;;;;;;17.00;7.82;;;12.20;99.90;;;;;;5084988;28;20438;-64
2022/05/28 10:13:12;;;;;;;13.53;7.10;;;12.30;99.90;;;;;;5094285;28;20109;-64
2022/05/28 10:15:51;;;;;;;18.58;7.50;;;12.50;99.90;;;;;;5093340;28;20040;-64
2022/05/28 10:18:22;;;;;;;15.20;6.30;;;12.70;99.90;;;;;;5085522;28;20413;-63
2022/05/28 10:21:29;;;;;;;9.65;5.78;;;13.00;99.90;;;;;;5093826;28;20040;-64
2022/05/28 10:24:03;;;;;;;11.38;5.55;;;13.30;99.90;;;;;;5054005;28;20060;-64
2022/05/28 10:26:30;;;;;;;13.82;6.00;;;13.30;99.90;;;;;;5093145;28;20058;-63
2022/05/28 10:29:00;;;;;;;;;;;13.10;99.90;;;;;;5085773;28;20048;-63
2022/05/28 10:31:38;;;;;;;12.27;6.32;;;13.00;99.90;;;;;;5093277;28;19920;-63
2022/05/28 10:34:06;;;;;;;15.10;5.97;;;12.80;99.90;;;;;;5093668;28;20074;-63
2022/05/28 10:36:35;;;;;;;16.30;6.40;;;12.80;99.90;;;;;;5084622;28;20032;-63
2022/05/28 10:39:14;;;;;;;11.60;5.90;;;12.70;99.90;;;;;;5093491;28;20105;-63
2022/05/28 10:41:42;;;;;;;14.98;5.97;;;12.60;99.90;;;;;;5093111;28;20420;-63
2022/05/28 10:44:13;;;;;;;13.10;6.10;;;12.60;99.90;;;;;;5087750;28;20044;-63
2022/05/28 10:47:13;;;;;;;14.05;5.55;;;12.70;99.90;;;;;;5091045;28;20044;-63
2022/05/28 10:49:51;;;;;;;13.35;5.82;;;12.70;99.90;;;;;;5093480;28;20377;-63
2022/05/28 10:52:34;;;;;;;;;;;12.80;99.90;;;;;;5093300;28;20093;-63
2022/05/28 10:55:08;;;;;;;13.90;5.95;;;12.80;99.90;;;;;;5080801;28;19927;-63
2022/05/28 10:58:06;;;;;;;19.98;6.05;;;12.90;99.90;;;;;;5073452;28;20086;-63
2022/05/28 11:01:01;;;;;;;15.27;5.25;;;13.00;99.90;;;;;;5081883;28;20071;-63
2022/05/28 11:03:30;;;;;;;13.32;5.32;;;13.10;99.90;;;;;;5093170;28;20056;-63
2022/05/28 11:06:25;;;;;;;8.27;4.80;;;13.40;99.90;;;;;;5093176;28;20496;-63
2022/05/28 11:09:15;;;;;;;15.43;5.75;;;13.60;99.90;;;;;;5086126;28;20048;-63
2022/05/28 11:11:55;;;;;;;11.80;4.35;;;13.90;99.90;;;;;;5083608;28;20097;-63
2022/05/28 11:14:22;;;;;;;13.18;4.68;;;14.20;99.90;;;;;;5093166;28;20036;-63
2022/05/28 11:17:06;;;;;;;9.27;4.43;;;14.50;99.90;;;;;;5092206;28;20040;-63
2022/05/28 11:19:58;;;;;;;8.45;4.25;;;14.60;99.90;;;;;;5084284;28;20377;-63
2022/05/28 11:22:35;;;;;;;8.32;4.68;;;14.70;99.90;;;;;;5092810;28;20097;-63
2022/05/28 11:25:23;;;;;;;12.07;4.68;;;14.70;99.90;;;;;;5092327;28;20093;-63
2022/05/28 11:28:26;;;;;;;8.75;3.72;;;14.50;99.90;;;;;;5083082;28;20090;-63
2022/05/28 11:31:06;;;;;;;5.93;3.20;;;14.20;99.90;;;;;;5092077;28;20044;-64
2022/05/28 11:33:37;;;;;;;8.00;3.40;;;13.90;99.90;;;;;;5060368;28;20037;-63
2022/05/28 11:36:21;;;;;;;9.43;2.80;;;13.70;99.90;;;;;;5062872;28;20044;-65
2022/05/28 11:39:00;;;;;;;9.40;3.00;;;13.80;99.90;;;;;;5054355;28;20037;-65
2022/05/28 11:41:45;;;;;;;7.78;3.38;;;14.00;99.90;;;;;;5071746;28;20052;-65
2022/05/28 11:44:38;;;;;;;8.45;3.30;;;14.30;99.90;;;;;;5061853;28;20034;-64
2022/05/28 11:47:30;;;;;;;6.63;3.13;;;14.40;99.90;;;;;;5044782;28;20091;-63
2022/05/28 11:53:02;;;;;;;8.18;3.58;;;14.50;99.90;;;;;;5048168;28;20037;-64
2022/05/28 11:55:35;;;;;;;10.88;4.13;;;14.70;99.90;;;;;;5051875;28;20037;-65
2022/05/28 11:58:14;;;;;;;10.00;3.58;;;15.00;99.90;;;;;;5051808;28;20037;-65
2022/05/28 12:00:42;;;;;;;7.72;3.50;;;15.30;99.90;;;;;;5045533;28;20045;-65
2022/05/28 12:03:16;;;;;;;10.90;3.22;;;15.30;99.90;;;;;;5051683;28;20056;-65
2022/05/28 12:05:51;;;;;;;5.28;2.72;;;15.30;99.90;;;;;;5051992;28;20047;-65
2022/05/28 12:08:30;;;;;;;6.85;2.63;;;15.30;99.90;;;;;;5046674;28;20052;-65
2022/05/28 12:11:01;;;;;;;7.22;3.30;;;15.40;99.90;;;;;;5050884;28;20074;-65
2022/05/28 12:13:50;;;;;;;7.15;3.30;;;15.40;99.90;;;;;;5051755;28;20451;-65
2022/05/28 12:16:17;;;;;;;7.07;3.40;;;15.40;99.90;;;;;;5051611;28;20041;-65
2022/05/28 12:18:57;;;;;;;;;;;15.20;99.90;;;;;;5049882;28;20373;-62
2022/05/28 12:21:36;;;;;;;8.05;2.72;;;15.20;99.90;;;;;;5051145;28;19921;-65
2022/05/28 12:24:18;;;;;;;6.57;3.40;;;15.10;99.90;;;;;;5049377;28;20049;-65
2022/05/28 12:29:39;;;;;;;7.80;3.22;;;15.30;99.90;;;;;;5051109;28;20048;-65
2022/05/28 12:32:27;;;;;;;7.07;3.35;;;15.40;99.90;;;;;;5050938;28;20045;-65
2022/05/28 12:35:15;;;;;;;6.82;3.03;;;15.70;99.90;;;;;;5045810;28;20041;-65
2022/05/28 12:37:58;;;;;;;7.17;2.70;;;16.00;99.90;;;;;;5051261;28;20037;-64
2022/05/28 12:40:54;;;;;;;11.10;3.55;;;16.30;99.90;;;;;;5051061;28;20218;-65
2022/05/28 12:43:35;;;;;;;7.68;2.45;;;16.50;99.90;;;;;;5051129;28;20056;-65
2022/05/28 12:46:32;;;;;;;8.48;3.20;;;16.90;99.90;;;;;;5044087;28;20041;-65
2022/05/28 12:49:08;;;;;;;4.78;2.60;;;16.70;99.90;;;;;;5031345;28;20041;-65
2022/05/28 12:52:12;;;;;;;8.48;2.55;;;16.80;99.90;;;;;;5030696;28;20364;-65
2022/05/28 12:54:42;;;;;;;7.13;2.40;;;16.80;99.90;;;;;;5039988;28;20044;-65
2022/05/28 12:57:25;;;;;;;8.07;2.60;;;16.60;99.90;;;;;;5051046;28;20520;-65
2022/05/28 13:00:12;;;;;;;6.63;2.50;;;16.50;99.90;;;;;;5050993;28;20045;-64
2022/05/28 13:02:43;;;;;;;7.07;2.50;;;16.40;99.90;;;;;;5043061;28;20040;-65
2022/05/28 13:05:13;;;;;;;8.68;2.60;;;16.00;99.90;;;;;;5050854;28;20049;-65
2022/05/28 13:07:40;;;;;;;6.22;2.30;;;16.00;99.90;;;;;;5051056;28;20053;-65
2022/05/28 13:10:18;;;;;;;6.78;2.42;;;16.00;99.90;;;;;;5047899;28;20037;-65
2022/05/28 13:13:05;;;;;;;8.57;2.10;;;16.10;99.90;;;;;;5049090;28;20037;-65
2022/05/28 13:16:08;;;;;;;7.10;2.55;;;16.50;99.90;;;;;;5050020;28;20056;-65
2022/05/28 13:18:48;;;;;;;7.03;2.58;;;16.90;99.90;;;;;;5043118;28;20416;-64
2022/05/28 13:21:34;;;;;;;6.97;2.40;;;17.10;99.90;;;;;;5050337;28;20041;-65